createdAt,value
2023-04-04T00:00:02.084Z,0.49
2023-04-04T00:02:32.093Z,0.52
2023-04-04T00:05:00.019Z,0.70
2023-04-04T00:07:29.281Z,0.48
2023-04-04T00:09:57.057Z,-0.24
2023-04-04T00:12:28.371Z,0.56
2023-04-04T00:14:57.465Z,0.35
2023-04-04T00:17:25.860Z,0.54
2023-04-04T00:19:53.679Z,0.51
2023-04-04T00:22:21.543Z,0.52
2023-04-04T00:24:51.597Z,0.54
2023-04-04T00:27:19.263Z,0.51
2023-04-04T00:29:47.102Z,0.45
2023-04-04T00:32:15.010Z,0.46
2023-04-04T00:34:43.023Z,0.44
2023-04-04T00:37:13.076Z,0.41
2023-04-04T00:39:41.798Z,0.47
2023-04-04T00:42:10.989Z,0.14
2023-04-04T00:44:38.878Z,0.23
2023-04-04T00:47:06.930Z,0.32
2023-04-04T00:49:34.872Z,0.33
2023-04-04T00:52:03.155Z,-0.03
2023-04-04T00:54:31.534Z,0.14
2023-04-04T00:56:59.742Z,-0.12
2023-04-04T00:59:30.123Z,-0.13
2023-04-04T01:01:58.375Z,-0.22
2023-04-04T01:04:26.365Z,-0.09
2023-04-04T01:06:54.419Z,-0.22
2023-04-04T01:11:51.751Z,-0.01
2023-04-04T01:14:19.852Z,-0.07
2023-04-04T01:16:50.539Z,-0.44
2023-04-04T01:19:34.506Z,-0.34
2023-04-04T01:22:07.744Z,-0.09
2023-04-04T01:24:37.122Z,-0.87
2023-04-04T01:27:07.780Z,-0.19
2023-04-04T01:29:41.938Z,-0.11
2023-04-04T01:32:16.751Z,-0.44
2023-04-04T01:34:52.888Z,-0.49
2023-04-04T01:37:29.461Z,-0.47
2023-04-04T01:40:06.374Z,-0.61
2023-04-04T01:42:37.995Z,-1.00
2023-04-04T01:45:09.099Z,-1.41
2023-04-04T01:47:41.657Z,-0.45
2023-04-04T01:50:13.575Z,-0.43
2023-04-04T01:52:41.390Z,-0.50
2023-04-04T01:55:10.745Z,-0.43
2023-04-04T01:57:40.451Z,-0.36
2023-04-04T02:00:10.994Z,-0.36
2023-04-04T02:02:44.686Z,-0.34
2023-04-04T02:05:13.418Z,-0.35
2023-04-04T02:07:41.825Z,-0.99
2023-04-04T02:10:21.554Z,-0.38
2023-04-04T02:12:53.902Z,-0.99
2023-04-04T02:15:23.971Z,-0.35
2023-04-04T02:17:52.439Z,-0.43
2023-04-04T02:20:20.607Z,-0.35
2023-04-04T02:22:53.723Z,-0.37
2023-04-04T02:25:22.609Z,-0.43
2023-04-04T02:27:52.279Z,-0.43
2023-04-04T02:30:24.368Z,-0.03
2023-04-04T02:32:53.004Z,-0.29
2023-04-04T02:35:22.194Z,-0.40
2023-04-04T02:37:51.300Z,-0.77
2023-04-04T02:40:29.128Z,-1.09
2023-04-04T02:42:58.473Z,-0.63
2023-04-04T02:45:26.859Z,-0.56
2023-04-04T02:48:03.900Z,-0.66
2023-04-04T02:50:40.511Z,-0.58
2023-04-04T02:53:10.260Z,-0.46
2023-04-04T02:55:39.158Z,-0.61
2023-04-04T02:58:08.428Z,-0.42
2023-04-04T03:00:36.491Z,-0.53
2023-04-04T03:03:05.358Z,-0.46
2023-04-04T03:05:38.216Z,-0.35
2023-04-04T03:08:06.362Z,-0.46
2023-04-04T03:10:34.297Z,-0.67
2023-04-04T03:13:02.187Z,-1.22
2023-04-04T03:15:34.578Z,-1.11
2023-04-04T03:18:03.310Z,-1.04
2023-04-04T03:20:33.174Z,-1.12
2023-04-04T03:23:01.069Z,-1.10
2023-04-04T03:25:28.960Z,-1.04
2023-04-04T03:27:56.792Z,-1.17
2023-04-04T03:30:27.206Z,-1.15
2023-04-04T03:32:57.329Z,-1.14
2023-04-04T03:35:25.529Z,-1.17
2023-04-04T03:37:54.737Z,-1.04
2023-04-04T03:40:22.643Z,-1.03
2023-04-04T03:42:51.466Z,-0.96
2023-04-04T03:45:21.116Z,-0.98
2023-04-04T03:47:49.161Z,-0.95
2023-04-04T03:50:18.452Z,-1.15
2023-04-04T03:52:52.570Z,-1.51
2023-04-04T03:55:20.420Z,-1.04
2023-04-04T03:57:48.289Z,-0.94
2023-04-04T04:00:17.677Z,-0.92
2023-04-04T04:02:46.466Z,-0.84
2023-04-04T04:05:14.597Z,-0.94
2023-04-04T04:07:45.952Z,-1.29
2023-04-04T04:10:15.064Z,-0.82
2023-04-04T04:12:42.860Z,-0.87
2023-04-04T04:15:11.601Z,-1.01
2023-04-04T04:17:41.981Z,-1.04
2023-04-04T04:20:12.362Z,-1.24
2023-04-04T04:22:49.468Z,-1.17
2023-04-04T04:25:17.776Z,-1.28
2023-04-04T04:27:57.435Z,-1.28
2023-04-04T04:30:26.739Z,-1.30
2023-04-04T04:32:54.706Z,-1.16
2023-04-04T04:35:27.858Z,-1.09
2023-04-04T04:37:58.194Z,-1.01
2023-04-04T04:40:26.145Z,-1.05
2023-04-04T04:43:05.957Z,-1.06
2023-04-04T04:45:33.814Z,-0.92
2023-04-04T04:48:08.269Z,-1.09
2023-04-04T04:50:44.354Z,-0.92
2023-04-04T04:53:15.176Z,-1.58
2023-04-04T04:55:43.803Z,-0.93
2023-04-04T04:58:12.202Z,-1.00
2023-04-04T05:00:45.457Z,-0.99
2023-04-04T05:03:13.593Z,-1.27
2023-04-04T05:05:48.297Z,-0.93
2023-04-04T05:08:18.857Z,-1.16
2023-04-04T05:11:09.603Z,-1.28
2023-04-04T05:13:38.488Z,-1.47
2023-04-04T05:16:06.824Z,-1.37
2023-04-04T05:18:36.838Z,-1.34
2023-04-04T05:21:09.562Z,-1.27
2023-04-04T05:23:38.939Z,-1.37
2023-04-04T05:26:08.133Z,-1.21
2023-04-04T05:28:40.583Z,-1.28
2023-04-04T05:31:08.511Z,-1.34
2023-04-04T05:33:37.699Z,-1.16
2023-04-04T05:36:13.070Z,-1.21
2023-04-04T05:38:56.963Z,-1.15
2023-04-04T05:41:29.750Z,-1.99
2023-04-04T05:44:03.961Z,-0.81
2023-04-04T05:46:31.879Z,-0.74
2023-04-04T05:48:59.700Z,-0.67
2023-04-04T05:51:28.215Z,-0.43
2023-04-04T05:54:10.659Z,-0.26
2023-04-04T05:56:39.892Z,-0.18
2023-04-04T05:59:14.587Z,0.10
2023-04-04T06:01:52.805Z,0.30
2023-04-04T06:04:20.976Z,0.53
2023-04-04T06:06:49.285Z,0.49
2023-04-04T06:09:18.478Z,0.60
2023-04-04T06:11:46.349Z,0.48
2023-04-04T06:14:15.346Z,0.68
2023-04-04T06:16:44.928Z,0.88
2023-04-04T06:19:12.962Z,1.11
2023-04-04T06:21:40.832Z,1.28
2023-04-04T06:24:09.926Z,1.36
2023-04-04T06:26:39.261Z,1.62
2023-04-04T06:29:07.432Z,1.70
2023-04-04T06:31:38.188Z,1.60
2023-04-04T06:34:10.936Z,1.86
2023-04-04T06:37:10.898Z,1.95
2023-04-04T06:39:47.703Z,2.02
2023-04-04T06:42:23.955Z,2.18
2023-04-04T06:44:53.477Z,2.24
2023-04-04T06:47:22.488Z,2.13
2023-04-04T06:49:50.340Z,2.51
2023-04-04T06:52:18.690Z,2.39
2023-04-04T06:54:46.859Z,2.44
2023-04-04T06:57:15.829Z,2.36
2023-04-04T06:59:45.352Z,2.24
2023-04-04T07:02:13.377Z,1.87
2023-04-04T07:04:41.891Z,1.95
2023-04-04T07:07:09.672Z,1.87
2023-04-04T07:09:37.610Z,1.88
2023-04-04T07:12:05.936Z,2.19
2023-04-04T07:14:33.707Z,1.81
2023-04-04T07:17:10.702Z,2.18
2023-04-04T07:19:45.307Z,2.22
2023-04-04T07:22:13.319Z,2.38
2023-04-04T07:24:42.169Z,2.51
2023-04-04T07:27:10.007Z,2.85
2023-04-04T07:29:37.868Z,2.88
2023-04-04T07:32:07.373Z,3.06
2023-04-04T07:34:35.280Z,3.45
2023-04-04T07:37:03.094Z,3.65
2023-04-04T07:39:31.305Z,3.73
2023-04-04T07:41:59.041Z,3.92
2023-04-04T07:44:26.832Z,3.85
2023-04-04T07:47:06.267Z,3.53
2023-04-04T07:49:38.983Z,4.14
2023-04-04T07:52:07.197Z,4.44
2023-04-04T07:54:34.934Z,4.46
2023-04-04T07:57:05.480Z,4.71
2023-04-04T07:59:33.349Z,4.72
2023-04-04T08:02:01.245Z,4.77
2023-04-04T08:04:29.192Z,5.07
2023-04-04T08:06:58.459Z,5.46
2023-04-04T08:09:28.420Z,5.33
2023-04-04T08:11:56.292Z,5.21
2023-04-04T08:14:24.166Z,4.90
2023-04-04T08:16:52.571Z,5.14
2023-04-04T08:19:20.522Z,5.44
2023-04-04T08:21:48.244Z,5.70
2023-04-04T08:24:17.394Z,5.89
2023-04-04T08:26:49.064Z,5.43
2023-04-04T08:29:22.641Z,5.91
2023-04-04T08:31:50.436Z,5.84
2023-04-04T08:34:18.283Z,5.00
2023-04-04T08:36:46.149Z,5.27
2023-04-04T08:39:14.277Z,5.36
2023-04-04T08:41:46.408Z,5.31
2023-04-04T08:44:18.355Z,5.48
2023-04-04T08:46:46.840Z,5.59
2023-04-04T08:49:17.385Z,6.01
2023-04-04T08:51:47.746Z,5.18
2023-04-04T08:54:18.134Z,5.78
2023-04-04T08:56:47.447Z,5.72
2023-04-04T08:59:15.529Z,5.78
2023-04-04T09:01:43.524Z,5.33
2023-04-04T09:04:11.983Z,5.09
2023-04-04T09:06:41.001Z,5.36
2023-04-04T09:09:09.354Z,5.79
2023-04-04T09:11:37.866Z,5.67
2023-04-04T09:14:07.160Z,5.45
2023-04-04T09:16:34.981Z,5.61
2023-04-04T09:19:02.776Z,5.40
2023-04-04T09:21:34.785Z,5.13
2023-04-04T09:24:03.566Z,5.84
2023-04-04T09:26:47.909Z,5.67
2023-04-04T09:29:18.990Z,5.10
2023-04-04T09:31:47.112Z,5.36
2023-04-04T09:34:16.456Z,5.24
2023-04-04T09:36:45.573Z,5.47
2023-04-04T09:39:16.524Z,5.62
2023-04-04T09:41:46.474Z,5.88
2023-04-04T09:44:15.013Z,5.85
2023-04-04T09:46:44.437Z,5.94
2023-04-04T09:49:13.511Z,5.52
2023-04-04T09:51:42.612Z,5.56
2023-04-04T09:54:18.792Z,5.97
2023-04-04T09:56:54.514Z,5.51
2023-04-04T09:59:22.330Z,5.13
2023-04-04T10:01:53.531Z,5.74
2023-04-04T10:04:21.737Z,5.86
2023-04-04T10:06:49.820Z,5.73
2023-04-04T10:09:17.695Z,6.02
2023-04-04T10:11:45.527Z,5.99
2023-04-04T10:14:13.537Z,6.02
2023-04-04T10:16:46.525Z,6.54
2023-04-04T10:19:18.997Z,6.64
2023-04-04T10:21:47.828Z,6.27
2023-04-04T10:24:15.776Z,6.34
2023-04-04T10:26:43.562Z,6.26
2023-04-04T10:29:12.835Z,6.09
2023-04-04T10:31:44.731Z,6.60
2023-04-04T10:34:23.009Z,5.85
2023-04-04T10:36:52.532Z,6.54
2023-04-04T10:39:26.050Z,6.34
2023-04-04T10:41:56.568Z,6.16
2023-04-04T10:44:29.946Z,6.01
2023-04-04T10:47:00.613Z,6.43
2023-04-04T10:49:31.735Z,7.00
2023-04-04T10:51:59.799Z,7.05
2023-04-04T10:54:29.321Z,6.83
2023-04-04T10:57:01.458Z,6.50
2023-04-04T10:59:29.516Z,6.59
2023-04-04T11:01:59.091Z,6.45
2023-04-04T11:04:33.020Z,6.85
2023-04-04T11:07:17.865Z,7.13
2023-04-04T11:09:50.072Z,7.36
2023-04-04T11:12:23.377Z,6.68
2023-04-04T11:14:58.996Z,6.78
2023-04-04T11:17:56.176Z,7.00
2023-04-04T11:20:29.818Z,7.16
2023-04-04T11:23:08.801Z,7.09
2023-04-04T11:25:39.804Z,6.65
2023-04-04T11:28:09.887Z,6.89
2023-04-04T11:30:44.957Z,7.03
2023-04-04T11:33:15.295Z,6.88
2023-04-04T11:35:51.318Z,6.10
2023-04-04T11:38:21.681Z,6.42
2023-04-04T11:40:56.503Z,6.87
2023-04-04T11:43:24.975Z,6.79
2023-04-04T11:45:52.883Z,6.45
2023-04-04T11:48:21.778Z,6.61
2023-04-04T11:50:51.359Z,7.00
2023-04-04T11:53:19.400Z,6.94
2023-04-04T11:55:50.391Z,6.54
2023-04-04T11:58:19.377Z,7.22
2023-04-04T12:00:47.762Z,6.97
2023-04-04T12:03:18.468Z,7.00
2023-04-04T12:05:47.670Z,7.24
2023-04-04T12:08:18.010Z,7.45
2023-04-04T12:10:45.766Z,7.69
2023-04-04T12:13:14.108Z,6.76
2023-04-04T12:15:44.052Z,6.92
2023-04-04T12:18:21.650Z,6.61
2023-04-04T12:20:49.604Z,7.20
2023-04-04T12:23:19.690Z,7.53
2023-04-04T12:25:53.554Z,7.37
2023-04-04T12:28:22.245Z,7.41
2023-04-04T12:30:51.355Z,7.28
2023-04-04T12:33:19.266Z,6.98
2023-04-04T12:35:52.968Z,7.06
2023-04-04T12:38:22.214Z,7.39
2023-04-04T12:40:52.509Z,7.39
2023-04-04T12:43:20.881Z,7.55
2023-04-04T12:45:51.297Z,7.22
2023-04-04T12:48:19.762Z,7.40
2023-04-04T12:50:55.747Z,7.21
2023-04-04T12:56:15.522Z,7.57
2023-04-04T12:58:47.647Z,7.72
2023-04-04T13:01:16.926Z,7.78
2023-04-04T13:03:45.231Z,7.53
2023-04-04T13:06:14.207Z,7.13
2023-04-04T13:08:52.732Z,7.31
2023-04-04T13:11:21.703Z,7.60
2023-04-04T13:13:49.868Z,7.55
2023-04-04T13:16:31.731Z,8.13
2023-04-04T13:19:00.088Z,7.14
2023-04-04T13:21:28.246Z,7.53
2023-04-04T13:23:57.886Z,7.46
2023-04-04T13:26:26.138Z,7.62
2023-04-04T13:28:54.009Z,7.98
2023-04-04T13:31:22.190Z,7.76
2023-04-04T13:33:50.104Z,7.37
2023-04-04T13:36:18.041Z,7.84
2023-04-04T13:38:45.799Z,8.25
2023-04-04T13:41:14.970Z,7.38
2023-04-04T13:43:42.810Z,7.42
2023-04-04T13:46:10.615Z,7.77
2023-04-04T13:48:38.540Z,7.74
2023-04-04T13:51:06.547Z,8.20
2023-04-04T13:53:34.465Z,7.77
2023-04-04T13:56:17.685Z,8.09
2023-04-04T13:58:48.152Z,7.61
2023-04-04T14:01:16.039Z,8.35
2023-04-04T14:03:44.098Z,7.93
2023-04-04T14:06:12.363Z,8.47
2023-04-04T14:08:40.448Z,7.70
2023-04-04T14:11:08.271Z,8.50
2023-04-04T14:13:36.334Z,8.62
2023-04-04T14:16:06.197Z,8.16
2023-04-04T14:18:34.523Z,8.47
2023-04-04T14:21:03.023Z,7.76
2023-04-04T14:23:31.515Z,7.91
2023-04-04T14:25:59.475Z,8.10
2023-04-04T14:28:28.118Z,8.37
2023-04-04T14:30:56.203Z,7.84
2023-04-04T14:33:25.460Z,7.90
2023-04-04T14:35:53.221Z,7.37
2023-04-04T14:38:20.993Z,7.97
2023-04-04T14:40:49.308Z,8.24
2023-04-04T14:43:17.074Z,7.78
2023-04-04T14:45:44.967Z,7.60
2023-04-04T14:48:12.921Z,7.32
2023-04-04T14:50:42.823Z,7.32
2023-04-04T14:53:11.803Z,7.52
2023-04-04T14:55:39.748Z,7.58
2023-04-04T14:58:08.234Z,7.48
2023-04-04T15:00:36.289Z,7.54
2023-04-04T15:03:07.164Z,7.55
2023-04-04T15:05:35.233Z,7.20
2023-04-04T15:08:04.752Z,7.64
2023-04-04T15:10:32.549Z,7.80
2023-04-04T15:13:00.596Z,7.35
2023-04-04T15:15:29.296Z,7.73
2023-04-04T15:17:57.250Z,8.04
2023-04-04T15:20:25.143Z,8.23
2023-04-04T15:22:54.475Z,7.99
2023-04-04T15:25:23.951Z,7.39
2023-04-04T15:27:51.898Z,7.65
2023-04-04T15:30:19.775Z,8.06
2023-04-04T15:32:47.744Z,7.46
2023-04-04T15:35:19.799Z,7.27
2023-04-04T15:37:49.099Z,7.00
2023-04-04T15:40:17.670Z,7.34
2023-04-04T15:42:47.195Z,7.47
2023-04-04T15:45:16.572Z,7.26
2023-04-04T15:47:45.063Z,7.28
2023-04-04T15:50:13.269Z,7.24
2023-04-04T15:52:41.643Z,7.66
2023-04-04T15:55:13.174Z,7.80
2023-04-04T15:57:42.727Z,7.79
2023-04-04T16:00:15.075Z,7.77
2023-04-04T16:02:43.098Z,7.52
2023-04-04T16:05:11.347Z,7.64
2023-04-04T16:07:39.214Z,7.37
2023-04-04T16:10:08.097Z,7.32
2023-04-04T16:12:36.039Z,7.62
2023-04-04T16:15:05.350Z,7.70
2023-04-04T16:17:34.671Z,7.75
2023-04-04T16:20:02.572Z,7.90
2023-04-04T16:22:30.349Z,7.20
2023-04-04T16:24:58.125Z,7.62
2023-04-04T16:27:26.029Z,7.99
2023-04-04T16:29:54.053Z,8.11
2023-04-04T16:32:21.824Z,8.23
2023-04-04T16:34:51.178Z,7.87
2023-04-04T16:37:19.037Z,7.53
2023-04-04T16:39:48.134Z,7.34
2023-04-04T16:42:19.496Z,7.40
2023-04-04T16:44:47.855Z,7.02
2023-04-04T16:47:15.654Z,7.43
2023-04-04T16:49:43.545Z,7.40
2023-04-04T16:52:14.599Z,7.39
2023-04-04T16:54:43.259Z,7.54
2023-04-04T16:57:11.251Z,7.49
2023-04-04T16:59:39.116Z,6.84
2023-04-04T17:02:08.902Z,7.36
2023-04-04T17:04:39.459Z,7.14
2023-04-04T17:07:09.118Z,7.09
2023-04-04T17:09:38.313Z,7.16
2023-04-04T17:12:06.808Z,7.22
2023-04-04T17:14:35.560Z,6.56
2023-04-04T17:17:05.164Z,6.97
2023-04-04T17:19:34.991Z,6.74
2023-04-04T17:22:03.390Z,6.64
2023-04-04T17:24:31.250Z,6.84
2023-04-04T17:27:02.387Z,6.99
2023-04-04T17:29:30.674Z,6.97
2023-04-04T17:31:59.692Z,7.09
2023-04-04T17:34:27.858Z,7.07
2023-04-04T17:36:56.600Z,6.70
2023-04-04T17:39:24.567Z,6.99
2023-04-04T17:41:52.828Z,6.71
2023-04-04T17:44:22.860Z,6.68
2023-04-04T17:46:50.734Z,6.23
2023-04-04T17:49:20.566Z,6.52
2023-04-04T17:51:49.257Z,6.19
2023-04-04T17:54:17.412Z,6.32
2023-04-04T17:56:45.524Z,6.47
2023-04-04T17:59:13.897Z,6.54
2023-04-04T18:01:43.227Z,6.49
2023-04-04T18:04:11.491Z,6.39
2023-04-04T18:06:41.163Z,6.19
2023-04-04T18:09:10.162Z,6.08
2023-04-04T18:11:38.407Z,6.26
2023-04-04T18:14:06.303Z,6.29
2023-04-04T18:16:39.533Z,6.18
2023-04-04T18:19:10.920Z,6.20
2023-04-04T18:21:39.208Z,6.33
2023-04-04T18:24:11.102Z,5.90
2023-04-04T18:26:39.267Z,6.17
2023-04-04T18:29:07.427Z,6.18
2023-04-04T18:31:35.411Z,6.16
2023-04-04T18:34:03.263Z,6.24
2023-04-04T18:36:32.564Z,6.15
2023-04-04T18:39:01.118Z,6.14
2023-04-04T18:41:29.094Z,6.06
2023-04-04T18:43:57.031Z,6.06
2023-04-04T18:46:25.058Z,6.05
2023-04-04T18:48:52.894Z,6.03
2023-04-04T18:51:22.311Z,5.90
2023-04-04T18:53:53.004Z,5.94
2023-04-04T18:56:21.603Z,5.90
2023-04-04T18:58:49.715Z,5.94
2023-04-04T19:01:17.740Z,5.94
2023-04-04T19:03:48.110Z,5.94
2023-04-04T19:06:16.611Z,5.95
2023-04-04T19:08:45.310Z,5.34
2023-04-04T19:11:15.850Z,5.90
2023-04-04T19:13:43.690Z,5.78
2023-04-04T19:16:11.617Z,5.84
2023-04-04T19:18:39.444Z,5.83
2023-04-04T19:21:08.842Z,5.45
2023-04-04T19:23:38.053Z,5.72
2023-04-04T19:26:06.609Z,5.59
2023-04-04T19:28:36.448Z,5.68
2023-04-04T19:31:10.787Z,5.65
2023-04-04T19:33:39.128Z,5.65
2023-04-04T19:36:09.588Z,5.07
2023-04-04T19:38:38.784Z,5.32
2023-04-04T19:41:12.415Z,5.54
2023-04-04T19:43:45.038Z,5.42
2023-04-04T19:46:14.372Z,5.28
2023-04-04T19:48:48.833Z,5.41
2023-04-04T19:51:39.122Z,5.38
2023-04-04T19:54:11.870Z,5.27
2023-04-04T19:56:39.909Z,5.31
2023-04-04T19:59:10.933Z,5.26
2023-04-04T20:01:44.775Z,5.24
2023-04-04T20:04:15.544Z,5.14
2023-04-04T20:06:43.540Z,4.90
2023-04-04T20:09:26.348Z,4.89
2023-04-04T20:11:54.318Z,5.09
2023-04-04T20:14:23.730Z,5.01
2023-04-04T20:16:52.558Z,4.68
2023-04-04T20:19:21.824Z,4.86
2023-04-04T20:21:50.020Z,5.03
2023-04-04T20:24:18.767Z,5.03
2023-04-04T20:26:55.521Z,5.00
2023-04-04T20:29:27.142Z,4.86
2023-04-04T20:31:57.249Z,4.82
2023-04-04T20:34:38.708Z,4.67
2023-04-04T20:37:10.145Z,4.57
2023-04-04T20:39:45.118Z,4.57
2023-04-04T20:42:20.054Z,4.62
2023-04-04T20:44:49.285Z,4.50
2023-04-04T20:47:44.945Z,4.49
2023-04-04T20:50:36.494Z,4.49
2023-04-04T20:53:05.864Z,4.48
2023-04-04T20:55:36.137Z,4.33
2023-04-04T20:58:08.692Z,4.51
2023-04-04T21:00:41.698Z,4.39
2023-04-04T21:03:11.689Z,4.00
2023-04-04T21:05:41.139Z,4.33
2023-04-04T21:08:37.055Z,4.33
2023-04-04T21:11:06.797Z,4.18
2023-04-04T21:13:37.153Z,4.01
2023-04-04T21:16:09.847Z,3.77
2023-04-04T21:18:39.141Z,3.82
2023-04-04T21:21:12.977Z,3.71
2023-04-04T21:23:46.042Z,3.79
2023-04-04T21:26:31.833Z,3.85
2023-04-04T21:29:00.948Z,3.79
2023-04-04T21:31:36.409Z,3.52
2023-04-04T21:34:12.684Z,3.37
2023-04-04T21:36:41.416Z,3.25
2023-04-04T21:39:12.947Z,3.31
2023-04-04T21:41:41.300Z,3.21
2023-04-04T21:44:10.714Z,2.88
2023-04-04T21:46:41.996Z,2.96
2023-04-04T21:49:10.552Z,2.96
2023-04-04T21:51:38.763Z,2.72
2023-04-04T21:54:06.733Z,2.90
2023-04-04T21:56:34.615Z,2.83
2023-04-04T21:59:04.004Z,2.67
2023-04-04T22:01:32.949Z,2.60
2023-04-04T22:04:02.505Z,2.50
2023-04-04T22:06:31.119Z,2.57
2023-04-04T22:09:01.681Z,2.77
2023-04-04T22:11:30.363Z,2.65
2023-04-04T22:14:04.678Z,2.50
2023-04-04T22:16:36.945Z,2.32
2023-04-04T22:19:07.348Z,2.44
2023-04-04T22:21:36.472Z,2.39
2023-04-04T22:24:06.242Z,2.30
2023-04-04T22:26:34.664Z,2.28
2023-04-04T22:29:05.163Z,2.25
2023-04-04T22:31:34.957Z,0.96
2023-04-04T22:34:03.954Z,2.28
2023-04-04T22:36:35.226Z,2.26
2023-04-04T22:39:03.052Z,2.13
2023-04-04T22:41:30.907Z,2.09
2023-04-04T22:43:59.409Z,1.84
2023-04-04T22:46:28.854Z,1.90
2023-04-04T22:49:04.845Z,1.27
2023-04-04T22:51:42.856Z,1.98
2023-04-04T22:54:11.149Z,1.93
2023-04-04T22:56:38.958Z,1.61
2023-04-04T22:59:06.796Z,1.71
2023-04-04T23:01:34.803Z,1.64
2023-04-04T23:04:02.757Z,1.68
2023-04-04T23:06:31.419Z,1.72
2023-04-04T23:09:01.941Z,1.74
2023-04-04T23:11:30.645Z,1.73
2023-04-04T23:13:58.619Z,1.51
2023-04-04T23:16:26.721Z,1.52
2023-04-04T23:18:54.606Z,1.53
2023-04-04T23:21:22.772Z,1.56
2023-04-04T23:23:50.818Z,1.56
2023-04-04T23:26:20.098Z,1.41
2023-04-04T23:28:48.085Z,1.42
2023-04-04T23:31:16.861Z,1.32
2023-04-04T23:33:44.891Z,1.46
2023-04-04T23:36:12.936Z,1.24
2023-04-04T23:38:40.785Z,1.36
2023-04-04T23:41:09.516Z,1.38
2023-04-04T23:43:39.010Z,1.11
2023-04-04T23:46:07.376Z,1.29
2023-04-04T23:48:35.462Z,1.13
2023-04-04T23:51:04.276Z,1.12
2023-04-04T23:53:32.193Z,1.50
2023-04-04T23:56:00.050Z,1.49
2023-04-04T23:58:27.920Z,1.24
